createdAt,value
2019-04-14T00:00:55.460Z,98087.68
2019-04-14T00:04:03.283Z,98353.05
2019-04-14T00:06:52.595Z,98350.81
2019-04-14T00:09:43.164Z,98357.58
2019-04-14T00:12:33.759Z,98360.80
2019-04-14T00:15:31.040Z,98121.53
2019-04-14T00:18:14.375Z,98271.16
2019-04-14T00:21:04.392Z,98360.16
2019-04-14T00:23:54.449Z,98351.22
2019-04-14T00:26:44.497Z,98355.60
2019-04-14T00:29:35.100Z,98359.81
2019-04-14T00:35:43.483Z,98355.55
2019-04-14T00:44:37.173Z,98348.78
2019-04-14T00:50:21.534Z,98347.02
2019-04-14T00:53:10.395Z,98345.17
2019-04-14T00:56:19.455Z,98345.83
2019-04-14T00:59:09.285Z,98075.16
2019-04-14T01:01:59.249Z,98349.64
2019-04-14T01:04:49.143Z,98339.87
2019-04-14T01:07:39.171Z,98340.31
2019-04-14T01:10:27.947Z,98340.86
2019-04-14T01:13:17.789Z,98177.27
2019-04-14T01:16:14.997Z,98345.75
2019-04-14T01:18:58.089Z,98341.52
2019-04-14T01:21:48.398Z,98283.45
2019-04-14T01:24:38.143Z,98343.27
2019-04-14T01:27:27.844Z,98344.11
2019-04-14T01:30:18.235Z,98344.81
2019-04-14T01:33:07.619Z,98342.81
2019-04-14T01:35:57.539Z,98152.98
2019-04-14T01:38:47.106Z,98348.84
2019-04-14T01:41:36.853Z,98344.04
2019-04-14T01:44:26.408Z,98342.69
2019-04-14T01:47:09.492Z,98342.06
2019-04-14T01:49:59.409Z,98337.47
2019-04-14T01:56:17.203Z,98337.66
2019-04-14T02:05:15.302Z,98352.05
2019-04-14T02:08:04.471Z,98352.25
2019-04-14T02:10:54.615Z,98353.81
2019-04-14T02:13:44.263Z,98351.48
2019-04-14T02:16:40.335Z,98352.02
2019-04-14T02:19:24.439Z,98357.09
2019-04-14T02:22:13.833Z,98358.16
2019-04-14T02:25:03.568Z,98359.01
2019-04-14T02:27:53.670Z,98357.23
2019-04-14T02:30:53.637Z,98092.72
2019-04-14T02:34:07.529Z,98357.94
2019-04-14T02:36:58.341Z,98084.43
2019-04-14T02:39:45.946Z,98364.78
2019-04-14T02:45:19.327Z,98198.49
2019-04-14T02:48:15.196Z,98360.00
2019-04-14T02:54:10.048Z,98367.20
2019-04-14T02:56:52.151Z,98368.78
2019-04-14T03:05:22.304Z,98369.47
2019-04-14T03:08:16.425Z,98370.04
2019-04-14T03:11:01.246Z,98292.16
2019-04-14T03:13:51.383Z,98372.91
2019-04-14T03:17:14.334Z,98372.78
2019-04-14T03:26:06.677Z,98380.86
2019-04-14T03:29:16.997Z,98380.47
2019-04-14T03:32:31.922Z,98374.44
2019-04-14T03:35:03.886Z,98070.51
2019-04-14T03:43:33.884Z,98380.45
2019-04-14T03:46:19.372Z,98373.77
2019-04-14T03:49:08.148Z,98372.47
2019-04-14T03:51:57.721Z,98282.25
2019-04-14T03:54:40.477Z,98370.95
2019-04-14T03:57:10.445Z,98375.70
2019-04-14T04:00:00.721Z,98380.63
2019-04-14T04:02:51.179Z,98379.97
2019-04-14T04:05:41.383Z,98375.30
2019-04-14T04:08:31.263Z,98379.66
2019-04-14T04:11:21.472Z,98377.10
2019-04-14T04:14:11.767Z,98139.14
2019-04-14T04:20:30.643Z,98387.33
2019-04-14T04:23:38.565Z,98394.11
2019-04-14T04:26:47.227Z,98396.31
2019-04-14T04:29:57.016Z,98318.11
2019-04-14T04:33:06.590Z,98129.44
2019-04-14T04:36:16.024Z,98391.11
2019-04-14T04:39:45.590Z,98394.42
2019-04-14T04:45:29.882Z,98400.17
2019-04-14T04:48:13.175Z,98142.44
2019-04-14T04:51:02.970Z,98084.84
2019-04-14T04:53:52.767Z,98121.02
2019-04-14T04:56:42.643Z,98404.06
2019-04-14T04:59:32.171Z,98407.14
2019-04-14T05:02:22.574Z,98408.52
2019-04-14T05:05:50.095Z,98123.81
2019-04-14T05:08:59.157Z,98408.89
2019-04-14T05:12:06.966Z,98417.02
2019-04-14T05:15:14.782Z,98414.22
2019-04-14T05:18:04.858Z,98332.33
2019-04-14T05:20:55.231Z,98427.17
2019-04-14T05:23:45.348Z,98424.95
2019-04-14T05:26:35.195Z,98426.36
2019-04-14T05:29:23.982Z,98427.62
2019-04-14T05:32:32.637Z,98186.70
2019-04-14T05:35:22.771Z,98423.67
2019-04-14T05:38:13.132Z,98121.76
2019-04-14T05:41:02.739Z,98147.67
2019-04-14T05:43:57.064Z,98433.35
2019-04-14T05:46:36.013Z,98435.23
2019-04-14T05:49:33.949Z,98442.91
2019-04-14T05:52:16.336Z,98386.80
2019-04-14T05:55:26.812Z,98193.25
2019-04-14T05:58:16.402Z,98449.67
2019-04-14T06:01:06.918Z,98446.82
2019-04-14T06:03:56.704Z,98458.34
2019-04-14T06:06:45.493Z,98382.73
2019-04-14T06:09:34.304Z,98465.92
2019-04-14T06:12:23.103Z,98450.45
2019-04-14T06:15:11.975Z,98206.50
2019-04-14T06:18:01.074Z,98463.16
2019-04-14T06:20:49.876Z,98467.92
2019-04-14T06:23:38.670Z,98473.93
2019-04-14T06:26:27.475Z,98469.92
2019-04-14T06:29:16.262Z,98439.36
2019-04-14T06:35:20.032Z,98468.23
2019-04-14T06:38:27.860Z,98196.00
2019-04-14T06:44:26.061Z,98464.62
2019-04-14T06:47:05.823Z,98457.28
2019-04-14T06:49:54.612Z,98463.25
2019-04-14T06:52:43.412Z,98459.64
2019-04-14T06:55:32.198Z,98460.48
2019-04-14T06:58:21.016Z,98194.51
2019-04-14T07:01:09.832Z,98470.22
2019-04-14T07:03:58.633Z,98158.87
2019-04-14T07:06:47.440Z,98466.86
2019-04-14T07:09:36.255Z,98464.64
2019-04-14T07:12:25.053Z,98465.86
2019-04-14T07:15:13.856Z,98318.97
2019-04-14T07:21:17.185Z,98315.07
2019-04-14T07:24:05.967Z,98474.53
2019-04-14T07:27:13.863Z,98478.79
2019-04-14T07:30:21.679Z,98483.50
2019-04-14T07:33:29.545Z,98481.58
2019-04-14T07:36:37.423Z,98486.36
2019-04-14T07:39:45.250Z,98491.27
2019-04-14T07:46:02.463Z,98487.69
2019-04-14T07:48:45.803Z,98486.61
2019-04-14T07:51:53.640Z,98476.98
2019-04-14T07:55:01.470Z,98483.29
2019-04-14T08:04:07.499Z,98320.95
2019-04-14T08:10:26.592Z,98473.25
2019-04-14T08:13:15.388Z,98448.58
2019-04-14T08:19:19.710Z,98489.30
2019-04-14T08:22:08.492Z,98476.66
2019-04-14T08:24:57.287Z,98482.98
2019-04-14T08:30:53.823Z,98471.73
2019-04-14T08:33:42.622Z,98469.67
2019-04-14T08:36:33.330Z,98470.31
2019-04-14T08:39:21.941Z,98466.28
2019-04-14T08:42:29.769Z,98466.03
2019-04-14T08:45:37.580Z,98449.80
2019-04-14T08:48:22.919Z,98480.27
2019-04-14T08:54:40.124Z,98482.66
2019-04-14T09:00:43.387Z,98490.52
2019-04-14T09:03:51.507Z,98485.00
2019-04-14T09:10:08.680Z,98414.31
2019-04-14T09:13:16.489Z,98495.17
2019-04-14T09:16:05.360Z,98479.02
2019-04-14T09:18:54.149Z,98474.73
2019-04-14T09:21:42.948Z,98238.94
2019-04-14T09:24:31.748Z,98473.89
2019-04-14T09:27:20.552Z,98472.98
2019-04-14T09:33:18.922Z,98473.31
2019-04-14T09:36:07.702Z,98477.44
2019-04-14T09:38:56.647Z,98474.09
2019-04-14T09:41:45.435Z,98474.57
2019-04-14T09:44:53.258Z,98471.14
2019-04-14T09:47:42.063Z,98472.26
2019-04-14T09:50:30.862Z,98467.66
2019-04-14T09:53:19.734Z,98402.70
2019-04-14T09:56:08.537Z,98471.98
2019-04-14T09:58:57.350Z,98259.27
2019-04-14T10:01:46.147Z,98221.53
2019-04-14T10:04:34.958Z,98470.38
2019-04-14T10:07:23.758Z,98478.17
2019-04-14T10:10:12.737Z,98476.44
2019-04-14T10:13:01.521Z,98480.45
2019-04-14T10:15:50.341Z,98482.44
2019-04-14T10:21:46.886Z,98273.38
2019-04-14T10:24:35.694Z,98487.25
2019-04-14T10:27:24.484Z,98477.17
2019-04-14T10:30:13.355Z,98479.50
2019-04-14T10:33:02.151Z,98485.06
2019-04-14T10:35:50.961Z,98480.20
2019-04-14T10:38:39.770Z,98352.86
2019-04-14T10:41:28.573Z,98488.70
2019-04-14T10:44:17.373Z,98483.19
2019-04-14T10:47:06.204Z,98476.16
2019-04-14T10:49:54.975Z,98348.51
2019-04-14T10:52:43.786Z,98485.06
2019-04-14T10:55:32.603Z,98482.85
2019-04-14T10:58:21.468Z,98486.55
2019-04-14T11:01:10.255Z,98247.33
2019-04-14T11:03:59.072Z,98483.38
2019-04-14T11:07:06.885Z,98486.30
2019-04-14T11:09:55.693Z,98485.35
2019-04-14T11:12:44.483Z,98421.61
2019-04-14T11:15:33.298Z,98488.16
2019-04-14T11:18:22.102Z,98223.66
2019-04-14T11:21:10.889Z,98494.69
2019-04-14T11:23:59.696Z,98499.78
2019-04-14T11:26:48.505Z,98487.77
2019-04-14T11:29:30.485Z,98484.61
2019-04-14T11:32:38.321Z,98486.50
2019-04-14T11:35:46.146Z,98333.39
2019-04-14T11:41:30.788Z,98494.31
2019-04-14T11:44:19.668Z,98259.88
2019-04-14T11:46:49.148Z,98491.14
2019-04-14T11:49:38.023Z,98494.90
2019-04-14T11:52:26.810Z,98289.01
2019-04-14T11:55:15.617Z,98491.14
2019-04-14T11:58:04.426Z,98492.45
2019-04-14T12:04:08.131Z,98288.44
2019-04-14T12:07:16.041Z,98245.73
2019-04-14T12:13:34.224Z,98489.03
2019-04-14T12:16:23.015Z,98493.54
2019-04-14T12:19:11.826Z,98492.77
2019-04-14T12:22:08.306Z,98499.44
2019-04-14T12:24:51.208Z,98499.58
2019-04-14T12:27:40.007Z,98508.14
2019-04-14T12:30:22.417Z,98512.66
2019-04-14T12:33:11.187Z,98272.09
2019-04-14T12:35:59.991Z,98515.59
2019-04-14T12:38:48.788Z,98524.69
2019-04-14T12:44:52.215Z,98517.92
2019-04-14T12:48:00.055Z,98529.65
2019-04-14T12:53:58.238Z,98524.17
2019-04-14T12:56:47.039Z,98517.66
2019-04-14T13:05:34.372Z,98530.34
2019-04-14T13:08:23.201Z,98534.72
2019-04-14T13:11:11.984Z,98534.79
2019-04-14T13:13:41.455Z,98533.00
2019-04-14T13:16:30.245Z,98533.39
2019-04-14T13:19:19.047Z,98533.53
2019-04-14T13:22:07.906Z,98548.64
2019-04-14T13:24:56.703Z,98542.63
2019-04-14T13:27:45.567Z,98535.38
2019-04-14T13:30:28.596Z,98537.50
2019-04-14T13:33:17.385Z,98530.69
2019-04-14T13:36:06.256Z,98541.38
2019-04-14T13:38:55.068Z,98541.36
2019-04-14T13:41:43.863Z,98402.47
2019-04-14T13:44:32.672Z,98535.36
2019-04-14T13:47:21.477Z,98540.50
2019-04-14T13:50:10.327Z,98548.14
2019-04-14T13:52:59.137Z,98538.34
2019-04-14T13:55:47.940Z,98538.98
2019-04-14T13:58:39.161Z,98308.37
2019-04-14T14:01:27.263Z,98533.68
2019-04-14T14:03:56.712Z,98536.65
2019-04-14T14:06:45.518Z,98528.88
2019-04-14T14:09:34.309Z,98537.14
2019-04-14T14:15:37.570Z,98538.66
2019-04-14T14:18:45.383Z,98539.16
2019-04-14T14:24:52.428Z,98539.41
2019-04-14T14:27:33.786Z,98544.72
2019-04-14T14:30:17.368Z,98543.50
2019-04-14T14:33:06.174Z,98549.98
2019-04-14T14:35:54.959Z,98551.23
2019-04-14T14:38:43.763Z,98552.11
2019-04-14T14:41:32.556Z,98551.67
2019-04-14T14:47:36.155Z,98550.83
2019-04-14T14:53:24.741Z,98554.23
2019-04-14T14:56:13.554Z,98547.84
2019-04-14T14:59:02.349Z,98546.56
2019-04-14T15:01:51.154Z,98546.95
2019-04-14T15:04:40.046Z,98552.97
2019-04-14T15:07:28.852Z,98549.50
2019-04-14T15:10:17.642Z,98552.48
2019-04-14T15:13:06.687Z,98552.52
2019-04-14T15:15:55.532Z,98564.52
2019-04-14T15:18:44.341Z,98562.80
2019-04-14T15:21:33.132Z,98562.38
2019-04-14T15:24:21.934Z,98559.83
2019-04-14T15:27:10.857Z,98565.30
2019-04-14T15:29:52.260Z,98568.28
2019-04-14T15:32:41.061Z,98515.27
2019-04-14T15:35:37.458Z,98357.89
2019-04-14T15:38:26.260Z,98572.97
2019-04-14T15:44:29.566Z,98357.54
2019-04-14T15:47:18.348Z,98568.35
2019-04-14T15:50:07.588Z,98567.91
2019-04-14T15:52:56.374Z,98425.16
2019-04-14T15:59:03.465Z,98304.61
2019-04-14T16:02:11.314Z,98572.97
2019-04-14T16:05:19.134Z,98569.50
2019-04-14T16:08:26.970Z,98571.67
2019-04-14T16:14:24.919Z,98571.20
2019-04-14T16:17:32.732Z,98434.80
2019-04-14T16:23:17.505Z,98579.28
2019-04-14T16:26:25.337Z,98581.67
2019-04-14T16:29:33.154Z,98585.66
2019-04-14T16:38:20.754Z,98590.39
2019-04-14T16:41:09.554Z,98590.34
2019-04-14T16:43:58.377Z,98379.08
2019-04-14T16:46:47.322Z,98602.41
2019-04-14T16:49:36.133Z,98601.03
2019-04-14T17:04:32.077Z,98401.70
2019-04-14T17:07:20.860Z,98618.48
2019-04-14T17:10:09.837Z,98625.16
2019-04-14T17:12:58.618Z,98625.70
2019-04-14T17:16:06.447Z,98638.09
2019-04-14T17:19:14.252Z,98637.70
2019-04-14T17:22:22.080Z,98640.17
2019-04-14T17:28:39.362Z,98654.70
2019-04-14T17:31:24.596Z,98647.29
2019-04-14T17:34:15.015Z,98435.38
2019-04-14T17:37:22.852Z,98647.50
2019-04-14T17:52:34.602Z,98664.51
2019-04-14T17:55:23.244Z,98388.27
2019-04-14T17:58:31.187Z,98581.45
2019-04-14T18:01:38.983Z,98672.26
2019-04-14T18:04:46.948Z,98677.41
2019-04-14T18:11:04.156Z,98422.68
2019-04-14T18:14:11.969Z,98689.69
2019-04-14T18:17:19.825Z,98686.75
2019-04-14T18:23:18.185Z,98691.58
2019-04-14T18:29:35.387Z,98555.97
2019-04-14T18:32:16.999Z,98450.55
2019-04-14T18:35:25.202Z,98711.93
2019-04-14T18:38:33.014Z,98708.87
2019-04-14T18:41:40.846Z,98712.78
2019-04-14T18:44:48.684Z,98711.00
2019-04-14T18:47:56.514Z,98715.41
2019-04-14T18:51:04.322Z,98438.50
2019-04-14T18:57:08.548Z,98727.53
2019-04-14T19:02:53.205Z,98732.73
2019-04-14T19:05:42.002Z,98736.83
2019-04-14T19:08:30.815Z,98566.86
2019-04-14T19:11:38.686Z,98740.31
2019-04-14T19:14:46.609Z,98747.66
2019-04-14T19:17:54.471Z,98744.44
2019-04-14T19:23:52.779Z,98746.24
2019-04-14T19:26:41.909Z,98754.58
2019-04-14T19:29:30.702Z,98751.39
2019-04-14T19:32:12.560Z,98759.88
2019-04-14T19:35:01.369Z,98753.82
2019-04-14T19:37:50.160Z,98753.55
2019-04-14T19:40:38.958Z,98751.77
2019-04-14T19:43:27.744Z,98757.50
2019-04-14T19:46:35.595Z,98764.29
2019-04-14T19:49:24.400Z,98766.79
2019-04-14T19:52:13.191Z,98480.53
2019-04-14T19:55:01.994Z,98762.84
2019-04-14T19:57:50.776Z,98629.08
2019-04-14T20:00:39.580Z,98765.94
2019-04-14T20:03:28.370Z,98769.23
2019-04-14T20:06:17.174Z,98692.93
2019-04-14T20:09:26.873Z,98765.28
2019-04-14T20:12:34.939Z,98545.09
2019-04-14T20:18:52.150Z,98606.25
2019-04-14T20:22:00.025Z,98761.05
2019-04-14T20:25:07.850Z,98763.84
2019-04-14T20:28:15.656Z,98766.55
2019-04-14T20:36:59.135Z,98777.23
2019-04-14T20:39:47.917Z,98779.03
2019-04-14T20:42:36.800Z,98780.52
2019-04-14T20:45:25.579Z,98571.67
2019-04-14T20:48:14.377Z,98779.84
2019-04-14T20:51:03.164Z,98784.34
2019-04-14T20:53:52.015Z,98786.14
2019-04-14T20:56:40.780Z,98502.61
2019-04-14T20:59:29.596Z,98782.28
2019-04-14T21:08:42.266Z,98794.78
2019-04-14T21:14:59.468Z,98790.11
2019-04-14T21:18:07.284Z,98800.01
2019-04-14T21:21:15.128Z,98808.62
2019-04-14T21:27:32.428Z,98813.75
2019-04-14T21:30:40.367Z,98564.44
2019-04-14T21:33:40.633Z,98820.19
2019-04-14T21:36:48.462Z,98815.16
2019-04-14T21:42:32.799Z,98812.95
2019-04-14T21:45:40.619Z,98806.77
2019-04-14T21:48:29.450Z,98807.72
2019-04-14T21:51:18.206Z,98816.08
2019-04-14T21:54:07.003Z,98816.41
2019-04-14T21:57:14.819Z,98816.52
2019-04-14T22:06:36.680Z,98823.97
2019-04-14T22:12:53.871Z,98563.16
2019-04-14T22:15:42.652Z,98670.91
2019-04-14T22:18:31.457Z,98818.16
2019-04-14T22:21:39.270Z,98823.26
2019-04-14T22:24:28.070Z,98820.19
2019-04-14T22:27:16.858Z,98823.94
2019-04-14T22:30:26.565Z,98823.41
2019-04-14T22:33:08.019Z,98798.67
2019-04-14T22:35:56.818Z,98829.73
2019-04-14T22:38:45.602Z,98828.52
2019-04-14T22:41:34.408Z,98830.01
2019-04-14T22:44:23.196Z,98680.73
2019-04-14T22:47:11.990Z,98839.29
2019-04-14T22:50:00.770Z,98733.95
2019-04-14T22:52:49.577Z,98841.61
2019-04-14T22:55:38.367Z,98838.55
2019-04-14T22:58:27.173Z,98839.39
2019-04-14T23:01:34.982Z,98831.31
2019-04-14T23:07:42.165Z,98834.77
2019-04-14T23:10:49.996Z,98691.05
2019-04-14T23:13:57.823Z,98827.52
2019-04-14T23:17:05.639Z,98821.25
2019-04-14T23:20:13.468Z,98820.59
2019-04-14T23:23:21.282Z,98824.50
2019-04-14T23:26:10.243Z,98822.03
2019-04-14T23:28:59.033Z,98818.32
2019-04-14T23:31:47.841Z,98816.30
2019-04-14T23:34:36.646Z,98817.56
2019-04-14T23:37:25.429Z,98811.66
2019-04-14T23:40:14.403Z,98816.12
2019-04-14T23:43:03.185Z,98814.12
2019-04-14T23:45:51.984Z,98806.02
2019-04-14T23:48:40.770Z,98807.36
2019-04-14T23:51:29.566Z,98665.38
2019-04-14T23:54:37.372Z,98804.42
2019-04-14T23:57:07.003Z,98799.04
2019-04-14T23:59:55.799Z,98803.30
